createdAt,value
2023-04-16T00:02:05.793Z,7.29
2023-04-16T00:04:33.064Z,7.28
2023-04-16T00:07:00.450Z,7.28
2023-04-16T00:09:29.057Z,7.31
2023-04-16T00:11:56.339Z,7.34
2023-04-16T00:14:23.553Z,7.38
2023-04-16T00:16:51.139Z,7.42
2023-04-16T00:19:18.356Z,7.41
2023-04-16T00:21:45.400Z,7.43
2023-04-16T00:24:12.839Z,7.43
2023-04-16T00:26:40.901Z,7.46
2023-04-16T00:29:08.574Z,7.46
2023-04-16T00:31:37.265Z,7.46
2023-04-16T00:34:04.564Z,7.48
2023-04-16T00:36:31.677Z,7.48
2023-04-16T00:38:58.808Z,7.47
2023-04-16T00:41:26.773Z,7.42
2023-04-16T00:43:54.191Z,7.41
2023-04-16T00:46:22.475Z,7.38
2023-04-16T00:48:51.540Z,7.35
2023-04-16T00:51:20.076Z,7.26
2023-04-16T00:53:47.292Z,7.24
2023-04-16T00:56:14.860Z,7.20
2023-04-16T00:58:41.995Z,7.22
2023-04-16T01:01:09.082Z,7.23
2023-04-16T01:03:43.720Z,7.24
2023-04-16T01:06:11.724Z,7.19
2023-04-16T01:08:47.037Z,7.15
2023-04-16T01:11:16.163Z,7.13
2023-04-16T01:13:43.426Z,7.13
2023-04-16T01:16:12.148Z,7.01
2023-04-16T01:18:40.442Z,6.96
2023-04-16T01:21:08.618Z,6.84
2023-04-16T01:23:38.430Z,6.81
2023-04-16T01:26:06.468Z,6.87
2023-04-16T01:28:36.376Z,6.91
2023-04-16T01:31:03.959Z,6.96
2023-04-16T01:33:31.409Z,6.96
2023-04-16T01:35:59.345Z,6.98
2023-04-16T01:38:28.236Z,6.94
2023-04-16T01:40:57.565Z,6.91
2023-04-16T01:43:26.226Z,6.85
2023-04-16T01:46:14.893Z,6.84
2023-04-16T01:48:42.464Z,6.78
2023-04-16T01:51:10.162Z,6.79
2023-04-16T01:53:37.360Z,6.81
2023-04-16T01:56:04.755Z,6.81
2023-04-16T01:58:32.416Z,6.76
2023-04-16T02:01:00.665Z,6.79
2023-04-16T02:03:28.371Z,6.79
2023-04-16T02:05:55.982Z,6.74
2023-04-16T02:08:23.743Z,6.73
2023-04-16T02:10:52.433Z,6.67
2023-04-16T02:13:20.426Z,6.61
2023-04-16T02:15:49.826Z,6.63
2023-04-16T02:18:17.835Z,6.65
2023-04-16T02:20:47.078Z,6.68
2023-04-16T02:23:17.944Z,6.63
2023-04-16T02:25:47.238Z,6.65
2023-04-16T02:28:16.857Z,6.66
2023-04-16T02:30:44.767Z,6.67
2023-04-16T02:33:13.594Z,6.68
2023-04-16T02:35:41.659Z,6.69
2023-04-16T02:38:10.359Z,6.64
2023-04-16T02:40:39.124Z,6.69
2023-04-16T02:43:07.542Z,6.65
2023-04-16T02:45:35.709Z,6.66
2023-04-16T02:48:03.887Z,6.57
2023-04-16T02:50:32.060Z,6.57
2023-04-16T02:53:01.572Z,6.57
2023-04-16T02:55:30.190Z,6.57
2023-04-16T02:57:57.716Z,6.57
2023-04-16T03:00:25.974Z,6.58
2023-04-16T03:02:55.257Z,6.59
2023-04-16T03:05:22.945Z,6.57
2023-04-16T03:07:57.010Z,6.57
2023-04-16T03:10:24.846Z,6.58
2023-04-16T03:12:53.000Z,6.57
2023-04-16T03:15:20.786Z,6.53
2023-04-16T03:17:48.835Z,6.56
2023-04-16T03:20:17.106Z,6.58
2023-04-16T03:22:44.213Z,6.59
2023-04-16T03:25:11.676Z,6.55
2023-04-16T03:27:41.734Z,6.55
2023-04-16T03:30:11.046Z,6.55
2023-04-16T03:32:38.577Z,6.58
2023-04-16T03:35:07.583Z,6.62
2023-04-16T03:37:34.782Z,6.66
2023-04-16T03:40:02.040Z,6.67
2023-04-16T03:42:29.109Z,6.68
2023-04-16T03:44:56.175Z,6.68
2023-04-16T03:47:23.585Z,6.69
2023-04-16T03:49:50.962Z,6.62
2023-04-16T03:52:18.043Z,6.61
2023-04-16T03:54:45.351Z,6.62
2023-04-16T03:57:12.415Z,6.62
2023-04-16T03:59:39.480Z,6.60
2023-04-16T04:02:06.703Z,6.61
2023-04-16T04:04:33.941Z,6.64
2023-04-16T04:07:01.165Z,6.58
2023-04-16T04:09:28.238Z,6.54
2023-04-16T04:11:55.442Z,6.55
2023-04-16T04:14:22.468Z,6.58
2023-04-16T04:16:49.502Z,6.47
2023-04-16T04:19:16.916Z,6.37
2023-04-16T04:21:43.964Z,6.25
2023-04-16T04:24:11.379Z,6.21
2023-04-16T04:26:38.543Z,6.18
2023-04-16T04:29:05.695Z,6.16
2023-04-16T04:31:33.045Z,6.10
2023-04-16T04:34:00.182Z,6.07
2023-04-16T04:36:27.438Z,6.04
2023-04-16T04:38:54.547Z,6.05
2023-04-16T04:41:21.872Z,6.03
2023-04-16T04:43:48.972Z,5.96
2023-04-16T04:46:16.183Z,5.94
2023-04-16T04:48:43.302Z,5.93
2023-04-16T04:51:10.531Z,5.89
2023-04-16T04:53:37.584Z,5.81
2023-04-16T04:56:12.091Z,5.72
2023-04-16T04:58:41.004Z,5.69
2023-04-16T05:01:08.122Z,5.62
2023-04-16T05:03:35.485Z,5.57
2023-04-16T05:06:02.821Z,5.57
2023-04-16T05:08:30.223Z,5.59
2023-04-16T05:10:57.356Z,5.64
2023-04-16T05:13:24.442Z,5.72
2023-04-16T05:15:51.503Z,5.71
2023-04-16T05:18:18.855Z,5.68
2023-04-16T05:20:46.084Z,5.67
2023-04-16T05:23:13.181Z,5.63
2023-04-16T05:25:40.250Z,5.71
2023-04-16T05:28:07.326Z,5.77
2023-04-16T05:30:34.404Z,5.82
2023-04-16T05:33:01.743Z,5.89
2023-04-16T05:35:28.864Z,5.93
2023-04-16T05:37:55.897Z,5.90
2023-04-16T05:40:23.039Z,5.92
2023-04-16T05:42:50.488Z,5.93
2023-04-16T05:45:17.659Z,5.89
2023-04-16T05:47:44.756Z,5.95
2023-04-16T05:50:11.814Z,5.93
2023-04-16T05:52:39.015Z,5.99
2023-04-16T05:55:07.089Z,6.04
2023-04-16T05:57:34.214Z,6.07
2023-04-16T06:00:01.646Z,6.10
2023-04-16T06:02:30.531Z,6.13
2023-04-16T06:04:57.704Z,6.12
2023-04-16T06:07:24.781Z,6.14
2023-04-16T06:09:51.850Z,6.16
2023-04-16T06:12:18.918Z,6.14
2023-04-16T06:14:45.988Z,6.13
2023-04-16T06:17:13.026Z,6.12
2023-04-16T06:19:40.769Z,6.17
2023-04-16T06:22:07.899Z,6.23
2023-04-16T06:24:34.936Z,6.24
2023-04-16T06:27:02.777Z,6.26
2023-04-16T06:29:40.665Z,6.21
2023-04-16T06:32:09.105Z,6.18
2023-04-16T06:34:38.502Z,6.18
2023-04-16T06:37:06.707Z,6.20
2023-04-16T06:39:35.205Z,6.22
2023-04-16T06:42:02.641Z,6.25
2023-04-16T06:44:29.733Z,6.30
2023-04-16T06:46:56.844Z,6.32
2023-04-16T06:49:24.230Z,6.35
2023-04-16T06:51:51.642Z,6.39
2023-04-16T06:54:19.732Z,6.46
2023-04-16T06:56:46.880Z,6.51
2023-04-16T06:59:14.200Z,6.62
2023-04-16T07:01:41.512Z,6.75
2023-04-16T07:04:09.523Z,6.87
2023-04-16T07:06:36.629Z,6.96
2023-04-16T07:09:03.793Z,7.00
2023-04-16T07:11:31.527Z,7.05
2023-04-16T07:13:58.988Z,7.12
2023-04-16T07:16:26.126Z,7.23
2023-04-16T07:18:53.239Z,7.32
2023-04-16T07:21:21.008Z,7.40
2023-04-16T07:23:48.216Z,7.48
2023-04-16T07:26:15.599Z,7.58
2023-04-16T07:28:43.586Z,7.66
2023-04-16T07:31:10.902Z,7.77
2023-04-16T07:33:38.227Z,7.84
2023-04-16T07:36:05.555Z,7.96
2023-04-16T07:38:32.645Z,8.08
2023-04-16T07:40:59.758Z,8.10
2023-04-16T07:43:26.897Z,8.12
2023-04-16T07:45:54.022Z,8.13
2023-04-16T07:48:22.002Z,8.14
2023-04-16T07:50:50.155Z,8.21
2023-04-16T07:53:17.260Z,8.26
2023-04-16T07:55:44.414Z,8.31
2023-04-16T07:58:11.519Z,8.43
2023-04-16T08:00:39.518Z,8.46
2023-04-16T08:03:06.997Z,8.49
2023-04-16T08:05:34.129Z,8.55
2023-04-16T08:08:01.256Z,8.59
2023-04-16T08:10:28.449Z,8.67
2023-04-16T08:12:55.523Z,8.73
2023-04-16T08:15:22.607Z,8.77
2023-04-16T08:17:49.725Z,8.81
2023-04-16T08:20:19.106Z,8.88
2023-04-16T08:22:46.702Z,8.97
2023-04-16T08:25:14.576Z,9.10
2023-04-16T08:27:41.676Z,9.16
2023-04-16T08:30:08.803Z,9.24
2023-04-16T08:32:35.968Z,9.37
2023-04-16T08:35:03.149Z,9.39
2023-04-16T08:37:30.458Z,9.47
2023-04-16T08:39:57.582Z,9.54
2023-04-16T08:42:32.617Z,9.63
2023-04-16T08:45:09.467Z,9.68
2023-04-16T08:47:37.297Z,9.75
2023-04-16T08:50:05.699Z,9.82
2023-04-16T08:52:33.185Z,9.88
2023-04-16T08:55:12.452Z,9.98
2023-04-16T08:57:46.251Z,10.07
2023-04-16T09:00:13.870Z,10.16
2023-04-16T09:02:41.182Z,10.26
2023-04-16T09:05:11.024Z,10.31
2023-04-16T09:07:38.806Z,10.37
2023-04-16T09:10:07.106Z,10.44
2023-04-16T09:12:35.799Z,10.47
2023-04-16T09:15:03.649Z,10.48
2023-04-16T09:17:31.330Z,10.52
2023-04-16T09:19:59.514Z,10.55
2023-04-16T09:22:26.648Z,10.64
2023-04-16T09:24:53.923Z,10.63
2023-04-16T09:27:21.534Z,10.59
2023-04-16T09:29:49.722Z,10.60
2023-04-16T09:32:16.804Z,10.64
2023-04-16T09:35:10.649Z,10.59
2023-04-16T09:37:38.690Z,10.59
2023-04-16T09:40:08.158Z,10.56
2023-04-16T09:42:36.998Z,10.57
2023-04-16T09:45:05.944Z,10.59
2023-04-16T09:47:42.107Z,10.63
2023-04-16T09:50:12.607Z,10.66
2023-04-16T09:52:44.198Z,10.78
2023-04-16T09:55:11.256Z,10.92
2023-04-16T09:57:39.196Z,11.02
2023-04-16T10:00:08.993Z,11.12
2023-04-16T10:02:39.095Z,11.27
2023-04-16T10:05:07.790Z,11.39
2023-04-16T10:07:36.122Z,11.41
2023-04-16T10:10:04.867Z,11.38
2023-04-16T10:12:33.074Z,11.38
2023-04-16T10:15:00.610Z,11.40
2023-04-16T10:17:30.230Z,11.43
2023-04-16T10:19:58.204Z,11.40
2023-04-16T10:22:26.364Z,11.36
2023-04-16T10:24:54.100Z,11.38
2023-04-16T10:27:21.459Z,11.47
2023-04-16T10:29:49.034Z,11.49
2023-04-16T10:32:17.436Z,11.55
2023-04-16T10:34:45.303Z,11.60
2023-04-16T10:37:12.690Z,11.62
2023-04-16T10:39:40.221Z,11.63
2023-04-16T10:42:13.800Z,11.67
2023-04-16T10:44:44.357Z,11.66
2023-04-16T10:47:14.253Z,11.63
2023-04-16T10:49:42.895Z,11.51
2023-04-16T10:52:17.245Z,11.43
2023-04-16T10:54:44.951Z,11.45
2023-04-16T10:57:19.954Z,11.48
2023-04-16T10:59:49.210Z,11.51
2023-04-16T11:02:20.470Z,11.49
2023-04-16T11:04:49.538Z,11.43
2023-04-16T11:07:17.293Z,11.40
2023-04-16T11:09:47.450Z,11.37
2023-04-16T11:12:27.648Z,11.41
2023-04-16T11:14:59.313Z,11.40
2023-04-16T11:17:41.301Z,11.43
2023-04-16T11:20:28.938Z,11.41
2023-04-16T11:22:57.365Z,11.35
2023-04-16T11:25:27.126Z,11.31
2023-04-16T11:27:56.248Z,11.35
2023-04-16T11:30:31.351Z,11.42
2023-04-16T11:32:58.539Z,11.52
2023-04-16T11:35:26.349Z,11.60
2023-04-16T11:37:56.524Z,11.66
2023-04-16T11:40:26.766Z,11.60
2023-04-16T11:42:54.077Z,11.61
2023-04-16T11:45:21.153Z,11.59
2023-04-16T11:47:53.363Z,11.57
2023-04-16T11:50:30.664Z,11.60
2023-04-16T11:53:04.164Z,11.75
2023-04-16T11:55:49.579Z,11.85
2023-04-16T11:58:16.638Z,11.97
2023-04-16T12:00:45.262Z,12.11
2023-04-16T12:03:12.963Z,12.26
2023-04-16T12:05:40.907Z,12.48
2023-04-16T12:08:09.941Z,12.67
2023-04-16T12:10:52.420Z,12.78
2023-04-16T12:13:20.142Z,12.86
2023-04-16T12:15:48.212Z,13.00
2023-04-16T12:18:16.415Z,13.10
2023-04-16T12:20:44.860Z,13.19
2023-04-16T12:23:24.689Z,13.12
2023-04-16T12:25:52.229Z,13.12
2023-04-16T12:28:33.341Z,13.04
2023-04-16T12:31:01.609Z,12.85
2023-04-16T12:33:29.466Z,12.79
2023-04-16T12:35:57.108Z,12.83
2023-04-16T12:38:25.565Z,12.89
2023-04-16T12:40:56.446Z,12.97
2023-04-16T12:43:24.054Z,12.98
2023-04-16T12:45:51.375Z,13.06
2023-04-16T12:48:18.653Z,13.10
2023-04-16T12:50:46.060Z,13.07
2023-04-16T12:53:13.122Z,12.96
2023-04-16T12:55:40.330Z,12.84
2023-04-16T12:58:11.078Z,12.85
2023-04-16T13:00:39.875Z,12.81
2023-04-16T13:03:07.036Z,12.79
2023-04-16T13:05:34.792Z,12.81
2023-04-16T13:08:02.136Z,12.73
2023-04-16T13:10:29.290Z,12.72
2023-04-16T13:12:57.517Z,12.62
2023-04-16T13:15:25.731Z,12.57
2023-04-16T13:17:53.014Z,12.55
2023-04-16T13:20:21.924Z,12.58
2023-04-16T13:22:51.051Z,12.56
2023-04-16T13:25:19.567Z,12.53
2023-04-16T13:27:47.609Z,12.50
2023-04-16T13:30:16.093Z,12.48
2023-04-16T13:32:44.086Z,12.54
2023-04-16T13:35:11.796Z,12.55
2023-04-16T13:37:39.053Z,12.56
2023-04-16T13:40:08.655Z,12.57
2023-04-16T13:42:37.532Z,12.65
2023-04-16T13:45:07.506Z,12.67
2023-04-16T13:47:36.797Z,12.63
2023-04-16T13:50:05.172Z,12.64
2023-04-16T13:52:33.542Z,12.71
2023-04-16T13:55:01.762Z,12.77
2023-04-16T13:57:29.215Z,12.79
2023-04-16T13:59:56.390Z,12.76
2023-04-16T14:02:23.567Z,12.76
2023-04-16T14:04:50.807Z,12.76
2023-04-16T14:07:19.870Z,12.73
2023-04-16T14:09:48.386Z,12.74
2023-04-16T14:12:16.307Z,12.72
2023-04-16T14:14:43.377Z,12.61
2023-04-16T14:17:11.686Z,12.66
2023-04-16T14:19:39.623Z,12.69
2023-04-16T14:22:09.479Z,12.72
2023-04-16T14:24:37.854Z,12.68
2023-04-16T14:27:07.692Z,12.64
2023-04-16T14:29:36.825Z,12.62
2023-04-16T14:32:06.178Z,12.60
2023-04-16T14:34:33.967Z,12.56
2023-04-16T14:37:02.469Z,12.50
2023-04-16T14:39:32.166Z,12.47
2023-04-16T14:42:00.610Z,12.47
2023-04-16T14:44:29.522Z,12.47
2023-04-16T14:46:58.210Z,12.44
2023-04-16T14:49:26.597Z,12.39
2023-04-16T14:51:54.639Z,12.34
2023-04-16T14:54:23.167Z,12.25
2023-04-16T14:56:51.294Z,12.19
2023-04-16T14:59:18.842Z,12.14
2023-04-16T15:01:48.059Z,12.06
2023-04-16T15:04:16.623Z,11.99
2023-04-16T15:06:46.525Z,11.98
2023-04-16T15:09:14.637Z,11.96
2023-04-16T15:11:42.617Z,11.97
2023-04-16T15:14:10.139Z,11.95
2023-04-16T15:16:38.780Z,11.96
2023-04-16T15:19:07.118Z,11.94
2023-04-16T15:21:34.845Z,11.87
2023-04-16T15:24:04.749Z,11.73
2023-04-16T15:26:33.039Z,11.65
2023-04-16T15:29:00.877Z,11.58
2023-04-16T15:31:29.611Z,11.50
2023-04-16T15:33:56.919Z,11.47
2023-04-16T15:36:24.777Z,11.43
2023-04-16T15:38:53.449Z,11.36
2023-04-16T15:41:20.826Z,11.34
2023-04-16T15:43:48.189Z,11.32
2023-04-16T15:46:15.604Z,11.32
2023-04-16T15:48:42.704Z,11.26
2023-04-16T15:51:10.624Z,11.23
2023-04-16T15:53:37.927Z,11.31
2023-04-16T15:56:05.090Z,11.30
2023-04-16T15:58:32.172Z,11.26
2023-04-16T16:00:59.270Z,11.21
2023-04-16T16:03:26.626Z,11.17
2023-04-16T16:05:53.816Z,11.13
2023-04-16T16:08:20.925Z,11.09
2023-04-16T16:10:48.678Z,11.01
2023-04-16T16:13:18.154Z,10.91
2023-04-16T16:15:45.866Z,10.82
2023-04-16T16:18:12.975Z,10.75
2023-04-16T16:20:40.536Z,10.67
2023-04-16T16:23:07.812Z,10.65
2023-04-16T16:25:35.195Z,10.65
2023-04-16T16:28:06.029Z,10.59
2023-04-16T16:30:33.531Z,10.59
2023-04-16T16:33:00.797Z,10.55
2023-04-16T16:35:27.903Z,10.57
2023-04-16T16:37:57.894Z,10.55
2023-04-16T16:40:25.289Z,10.54
2023-04-16T16:42:52.775Z,10.52
2023-04-16T16:45:20.748Z,10.49
2023-04-16T16:47:48.833Z,10.47
2023-04-16T16:50:16.130Z,10.47
2023-04-16T16:52:44.552Z,10.39
2023-04-16T16:55:11.967Z,10.31
2023-04-16T16:57:39.331Z,10.34
2023-04-16T17:00:16.329Z,10.35
2023-04-16T17:02:43.924Z,10.30
2023-04-16T17:05:12.552Z,10.25
2023-04-16T17:07:39.841Z,10.25
2023-04-16T17:10:07.358Z,10.24
2023-04-16T17:12:34.460Z,10.20
2023-04-16T17:15:01.555Z,10.11
2023-04-16T17:17:29.230Z,10.10
2023-04-16T17:19:56.329Z,10.09
2023-04-16T17:22:23.705Z,10.04
2023-04-16T17:24:50.908Z,9.99
2023-04-16T17:27:18.044Z,9.94
2023-04-16T17:29:45.384Z,9.92
2023-04-16T17:32:12.691Z,9.89
2023-04-16T17:34:39.897Z,9.92
2023-04-16T17:37:07.245Z,9.89
2023-04-16T17:39:34.316Z,9.83
2023-04-16T17:42:03.026Z,9.78
2023-04-16T17:44:30.382Z,9.76
2023-04-16T17:46:57.443Z,9.77
2023-04-16T17:49:24.524Z,9.77
2023-04-16T17:51:52.618Z,9.76
2023-04-16T17:54:19.847Z,9.80
2023-04-16T17:56:47.218Z,9.74
2023-04-16T17:59:14.302Z,9.69
2023-04-16T18:01:41.661Z,9.61
2023-04-16T18:04:09.578Z,9.61
2023-04-16T18:06:36.883Z,9.59
2023-04-16T18:09:05.771Z,9.52
2023-04-16T18:11:33.186Z,9.42
2023-04-16T18:14:00.241Z,9.36
2023-04-16T18:16:27.518Z,9.33
2023-04-16T18:18:54.606Z,9.32
2023-04-16T18:21:22.046Z,9.27
2023-04-16T18:23:49.133Z,9.22
2023-04-16T18:26:20.430Z,9.08
2023-04-16T18:28:49.277Z,9.03
2023-04-16T18:31:18.410Z,9.02
2023-04-16T18:33:56.279Z,9.00
2023-04-16T18:36:26.097Z,8.94
2023-04-16T18:39:01.491Z,8.88
2023-04-16T18:41:30.767Z,8.86
2023-04-16T18:43:58.162Z,8.87
2023-04-16T18:46:26.729Z,8.86
2023-04-16T18:48:54.259Z,8.83
2023-04-16T18:51:21.377Z,8.79
2023-04-16T18:53:48.420Z,8.73
2023-04-16T18:56:15.473Z,8.70
2023-04-16T18:58:43.415Z,8.67
2023-04-16T19:01:13.957Z,8.69
2023-04-16T19:03:41.482Z,8.65
2023-04-16T19:06:09.573Z,8.65
2023-04-16T19:08:36.617Z,8.65
2023-04-16T19:11:03.698Z,8.65
2023-04-16T19:13:32.242Z,8.67
2023-04-16T19:16:00.836Z,8.68
2023-04-16T19:18:28.997Z,8.70
2023-04-16T19:21:02.054Z,8.69
2023-04-16T19:23:29.670Z,8.69
2023-04-16T19:25:57.226Z,8.68
2023-04-16T19:28:25.014Z,8.69
2023-04-16T19:30:53.318Z,8.67
2023-04-16T19:33:20.525Z,8.69
2023-04-16T19:35:47.937Z,8.71
2023-04-16T19:38:15.055Z,8.69
2023-04-16T19:40:48.774Z,8.69
2023-04-16T19:43:15.863Z,8.69
2023-04-16T19:45:46.976Z,8.73
2023-04-16T19:48:14.385Z,8.75
2023-04-16T19:50:42.274Z,8.74
2023-04-16T19:53:09.597Z,8.77
2023-04-16T19:55:37.049Z,8.75
2023-04-16T19:58:06.825Z,8.77
2023-04-16T20:00:35.065Z,8.74
2023-04-16T20:03:02.225Z,8.75
2023-04-16T20:05:29.706Z,8.82
2023-04-16T20:07:57.060Z,8.85
2023-04-16T20:10:24.126Z,8.86
2023-04-16T20:12:51.305Z,8.88
2023-04-16T20:15:18.886Z,8.92
2023-04-16T20:17:46.084Z,8.90
2023-04-16T20:20:15.741Z,8.90
2023-04-16T20:22:43.388Z,8.93
2023-04-16T20:25:10.507Z,8.94
2023-04-16T20:27:37.651Z,8.89
2023-04-16T20:30:06.341Z,8.88
2023-04-16T20:32:33.624Z,8.90
2023-04-16T20:35:01.918Z,8.94
2023-04-16T20:37:29.203Z,8.98
2023-04-16T20:39:56.484Z,9.01
2023-04-16T20:42:26.186Z,8.94
2023-04-16T20:44:56.371Z,8.97
2023-04-16T20:47:23.928Z,8.96
2023-04-16T20:49:52.632Z,8.98
2023-04-16T20:52:21.655Z,8.99
2023-04-16T20:54:51.949Z,8.97
2023-04-16T20:57:19.137Z,8.97
2023-04-16T20:59:46.393Z,8.95
2023-04-16T21:02:13.657Z,8.93
2023-04-16T21:04:41.196Z,8.86
2023-04-16T21:07:08.319Z,8.83
2023-04-16T21:09:35.641Z,8.79
2023-04-16T21:12:02.748Z,8.77
2023-04-16T21:14:29.809Z,8.75
2023-04-16T21:16:56.896Z,8.70
2023-04-16T21:19:23.944Z,8.68
2023-04-16T21:21:51.227Z,8.64
2023-04-16T21:24:18.285Z,8.64
2023-04-16T21:26:45.366Z,8.58
2023-04-16T21:29:13.082Z,8.56
2023-04-16T21:31:40.439Z,8.58
2023-04-16T21:34:07.528Z,8.54
2023-04-16T21:36:35.057Z,8.48
2023-04-16T21:39:02.375Z,8.46
2023-04-16T21:41:29.450Z,8.42
2023-04-16T21:43:56.610Z,8.40
2023-04-16T21:46:23.779Z,8.41
2023-04-16T21:48:50.897Z,8.38
2023-04-16T21:51:18.179Z,8.37
2023-04-16T21:53:45.228Z,8.39
2023-04-16T21:56:12.328Z,8.36
2023-04-16T21:58:39.376Z,8.35
2023-04-16T22:01:07.277Z,8.34
2023-04-16T22:03:39.929Z,8.31
2023-04-16T22:06:07.744Z,8.29
2023-04-16T22:08:34.936Z,8.31
2023-04-16T22:11:02.629Z,8.35
2023-04-16T22:13:32.480Z,8.36
2023-04-16T22:16:03.417Z,8.35
2023-04-16T22:18:33.731Z,8.33
2023-04-16T22:21:00.944Z,8.29
2023-04-16T22:23:28.051Z,8.27
2023-04-16T22:25:56.124Z,8.26
2023-04-16T22:28:24.250Z,8.21
2023-04-16T22:30:51.392Z,8.19
2023-04-16T22:33:18.613Z,8.20
2023-04-16T22:35:46.003Z,8.23
2023-04-16T22:38:13.139Z,8.28
2023-04-16T22:40:40.680Z,8.21
2023-04-16T22:43:07.731Z,8.20
2023-04-16T22:45:35.558Z,8.26
2023-04-16T22:48:03.464Z,8.22
2023-04-16T22:50:32.108Z,8.22
2023-04-16T22:52:59.175Z,8.21
2023-04-16T22:55:26.404Z,8.22
2023-04-16T22:57:53.482Z,8.27
2023-04-16T23:00:21.146Z,8.34
2023-04-16T23:02:48.938Z,8.34
2023-04-16T23:05:16.414Z,8.30
2023-04-16T23:07:43.467Z,8.27
2023-04-16T23:10:10.811Z,8.26
2023-04-16T23:12:37.849Z,8.23
2023-04-16T23:15:06.622Z,8.20
2023-04-16T23:17:34.941Z,8.22
2023-04-16T23:20:02.492Z,8.25
2023-04-16T23:22:29.675Z,8.28
2023-04-16T23:24:56.894Z,8.23
2023-04-16T23:27:23.929Z,8.24
2023-04-16T23:29:51.089Z,8.24
2023-04-16T23:32:18.807Z,8.23
2023-04-16T23:34:45.980Z,8.23
2023-04-16T23:37:13.063Z,8.23
2023-04-16T23:39:41.019Z,8.23
2023-04-16T23:42:08.116Z,8.22
2023-04-16T23:44:35.380Z,8.22
2023-04-16T23:47:02.583Z,8.17
2023-04-16T23:49:30.068Z,8.12
2023-04-16T23:51:57.333Z,8.10
2023-04-16T23:54:24.618Z,8.11
2023-04-16T23:56:51.663Z,8.10
2023-04-16T23:59:18.874Z,8.09
